Time;durP1;ratioP1;P1;durP2;ratioP2;P2;SDS_P1;SDS_P2;PMS_P1;PMS_P2;Temp;Humidity;BMP_temperature;BMP_pressure;BME280_temperature;BME280_humidity;BME280_pressure;Samples;Min_cycle;Max_cycle;Signal;HPM_P1;HPM_P2
2021/11/29 00:00:36;;;;;;;23.10;15.95;;;5.30;99.90;;;;;;5102844;28;20234;-72
2021/11/29 00:03:07;;;;;;;24.50;17.52;;;5.20;99.90;;;;;;5101311;28;20222;-73
2021/11/29 00:05:34;;;;;;;25.08;17.30;;;5.30;99.90;;;;;;5110342;28;20652;-73
2021/11/29 00:08:02;;;;;;;23.05;15.25;;;5.20;99.90;;;;;;5103723;28;20603;-72
2021/11/29 00:10:31;;;;;;;20.13;13.77;;;5.20;99.90;;;;;;5110576;28;20288;-73
2021/11/29 00:13:00;;;;;;;19.70;14.55;;;5.20;99.90;;;;;;5106371;28;20225;-72
2021/11/29 00:15:27;;;;;;;19.50;12.57;;;5.10;99.90;;;;;;5107627;28;20205;-73
2021/11/29 00:17:55;;;;;;;19.73;14.40;;;5.10;99.90;;;;;;5114347;28;20699;-73
2021/11/29 00:20:22;;;;;;;19.33;14.95;;;5.10;99.90;;;;;;5105389;28;20219;-73
2021/11/29 00:22:50;;;;;;;19.23;12.98;;;5.20;99.90;;;;;;5101795;28;20300;-73
2021/11/29 00:25:17;;;;;;;17.17;12.60;;;5.10;99.90;;;;;;5097014;28;20352;-73
2021/11/29 00:27:45;;;;;;;23.88;13.80;;;5.00;99.90;;;;;;5104302;28;20230;-73
2021/11/29 00:30:15;;;;;;;18.05;13.32;;;5.00;99.90;;;;;;5104721;28;20280;-73
2021/11/29 00:32:42;;;;;;;18.80;12.43;;;5.00;99.90;;;;;;5098612;28;20694;-72
2021/11/29 00:35:10;;;;;;;20.13;13.38;;;5.00;99.90;;;;;;5105025;28;20280;-73
2021/11/29 00:37:37;;;;;;;23.05;12.85;;;5.00;99.90;;;;;;5103422;28;20198;-73
2021/11/29 00:40:07;;;;;;;18.17;13.48;;;5.00;99.90;;;;;;5103011;28;20202;-73
2021/11/29 00:42:34;;;;;;;19.15;11.68;;;5.00;99.90;;;;;;5108934;28;20297;-73
2021/11/29 00:45:01;;;;;;;15.30;11.90;;;5.00;99.90;;;;;;5103057;28;20280;-73
2021/11/29 00:47:29;;;;;;;17.98;12.02;;;5.10;99.90;;;;;;5100292;28;20297;-73
2021/11/29 00:49:56;;;;;;;17.95;11.25;;;5.10;99.90;;;;;;5107595;28;20258;-73
2021/11/29 00:52:23;;;;;;;14.90;10.65;;;5.00;99.90;;;;;;5101073;28;20717;-73
2021/11/29 00:54:50;;;;;;;13.15;10.00;;;5.10;99.90;;;;;;5106968;28;20561;-72
2021/11/29 00:57:17;;;;;;;13.15;8.57;;;5.10;99.90;;;;;;5102601;28;20284;-73
2021/11/29 00:59:46;;;;;;;12.70;9.45;;;5.10;99.90;;;;;;5106358;28;20204;-72
2021/11/29 01:02:14;;;;;;;14.10;9.95;;;5.20;99.90;;;;;;5106290;28;20700;-73
2021/11/29 01:04:43;;;;;;;10.73;8.25;;;5.20;99.90;;;;;;5101057;28;20201;-72
2021/11/29 01:07:10;;;;;;;11.77;8.90;;;5.20;99.90;;;;;;5107546;28;20249;-72
2021/11/29 01:09:38;;;;;;;13.30;8.98;;;5.30;99.90;;;;;;5110180;28;20254;-74
2021/11/29 01:12:06;;;;;;;13.63;8.98;;;5.20;99.90;;;;;;5105028;28;20311;-73
2021/11/29 01:14:33;;;;;;;12.63;7.78;;;5.20;99.90;;;;;;5100233;28;20197;-72
2021/11/29 01:17:00;;;;;;;11.68;7.78;;;5.20;99.90;;;;;;5106610;28;20198;-73
2021/11/29 01:19:27;;;;;;;10.82;7.75;;;5.20;99.90;;;;;;5106831;28;20236;-72
2021/11/29 01:21:56;;;;;;;12.93;8.15;;;5.20;99.90;;;;;;5104147;28;20218;-72
2021/11/29 01:24:23;;;;;;;11.13;8.07;;;5.20;99.90;;;;;;5094852;28;20205;-73
2021/11/29 01:26:49;;;;;;;13.00;9.15;;;5.20;99.90;;;;;;5111264;28;20308;-72
2021/11/29 01:29:16;;;;;;;11.90;7.50;;;5.30;99.90;;;;;;5102393;28;20194;-72
2021/11/29 01:31:45;;;;;;;12.95;7.70;;;5.30;99.90;;;;;;5112723;28;20312;-72
2021/11/29 01:34:12;;;;;;;10.95;7.70;;;5.20;99.90;;;;;;5104851;28;20233;-72
2021/11/29 01:36:39;;;;;;;8.85;6.45;;;5.10;99.90;;;;;;5101662;28;20190;-72
2021/11/29 01:39:08;;;;;;;10.52;7.55;;;5.20;99.90;;;;;;5102695;28;20209;-72
2021/11/29 01:41:36;;;;;;;11.85;8.73;;;5.20;99.90;;;;;;5108670;28;20204;-72
2021/11/29 01:44:03;;;;;;;11.88;8.07;;;5.20;99.90;;;;;;5105486;28;20194;-70
2021/11/29 01:46:31;;;;;;;10.45;5.97;;;5.20;99.90;;;;;;5100317;28;20234;-72
2021/11/29 01:48:58;;;;;;;9.13;7.53;;;5.10;99.90;;;;;;5099877;28;20571;-72
2021/11/29 01:51:25;;;;;;;9.45;5.55;;;5.10;99.90;;;;;;5104265;28;20760;-72
2021/11/29 01:53:53;;;;;;;10.18;7.55;;;5.10;99.90;;;;;;5104112;28;20202;-72
2021/11/29 01:56:21;;;;;;;6.85;5.95;;;5.10;99.90;;;;;;5113321;28;20728;-73
2021/11/29 01:58:48;;;;;;;8.02;6.68;;;5.10;99.90;;;;;;5103757;28;20206;-74
2021/11/29 02:01:20;;;;;;;9.60;6.53;;;5.10;99.90;;;;;;5104887;28;20295;-73
2021/11/29 02:03:51;;;;;;;9.00;6.75;;;5.10;99.90;;;;;;5101900;28;20727;-73
2021/11/29 02:06:18;;;;;;;6.22;5.63;;;5.00;99.90;;;;;;5107671;28;20219;-73
2021/11/29 02:08:45;;;;;;;8.70;6.95;;;5.10;99.90;;;;;;5108454;28;20198;-73
2021/11/29 02:11:13;;;;;;;7.45;5.82;;;5.10;99.90;;;;;;5107944;28;20207;-74
2021/11/29 02:13:41;;;;;;;9.55;7.10;;;5.10;99.90;;;;;;5105162;28;20302;-73
2021/11/29 02:16:09;;;;;;;8.20;6.45;;;5.10;99.90;;;;;;5105425;28;20198;-73
2021/11/29 02:18:40;;;;;;;9.55;6.47;;;5.10;99.90;;;;;;5103868;28;20293;-73
2021/11/29 02:21:11;;;;;;;9.38;6.63;;;5.10;99.90;;;;;;5112686;28;20262;-73
2021/11/29 02:23:39;;;;;;;6.72;5.97;;;5.10;99.90;;;;;;5113767;28;20304;-73
2021/11/29 02:26:07;;;;;;;6.90;5.47;;;5.10;99.90;;;;;;5109052;28;20621;-73
2021/11/29 02:28:35;;;;;;;10.75;6.72;;;5.10;99.90;;;;;;5096271;28;20686;-73
2021/11/29 02:31:06;;;;;;;8.85;5.88;;;5.00;99.90;;;;;;5102858;28;20682;-73
2021/11/29 02:33:33;;;;;;;11.65;7.28;;;5.00;99.90;;;;;;5113190;28;20261;-73
2021/11/29 02:36:00;;;;;;;7.32;6.00;;;5.00;99.90;;;;;;5115089;28;20197;-73
2021/11/29 02:38:29;;;;;;;8.57;6.53;;;5.00;99.90;;;;;;5109832;28;20186;-73
2021/11/29 02:40:56;;;;;;;8.45;6.82;;;5.00;99.90;;;;;;5110649;28;20281;-73
2021/11/29 02:43:23;;;;;;;11.43;7.43;;;4.90;99.90;;;;;;5107132;28;20253;-73
2021/11/29 02:45:50;;;;;;;9.10;6.53;;;5.00;99.90;;;;;;5107513;28;20202;-73
2021/11/29 02:48:17;;;;;;;8.25;6.07;;;5.00;99.90;;;;;;5111440;28;20742;-73
2021/11/29 02:50:44;;;;;;;11.07;7.38;;;5.00;99.90;;;;;;5109180;28;20205;-73
2021/11/29 02:53:13;;;;;;;10.15;6.97;;;5.00;99.90;;;;;;5112227;28;20225;-73
2021/11/29 02:55:42;;;;;;;7.93;5.78;;;5.00;99.90;;;;;;5104765;28;20198;-73
2021/11/29 02:58:09;;;;;;;13.52;8.30;;;5.00;99.90;;;;;;5104579;28;20204;-73
2021/11/29 03:00:36;;;;;;;8.57;7.35;;;5.00;99.90;;;;;;5102945;28;20680;-73
2021/11/29 03:03:07;;;;;;;8.23;7.15;;;5.10;99.90;;;;;;5108339;28;20224;-73
2021/11/29 03:05:35;;;;;;;10.98;7.07;;;5.00;99.90;;;;;;5095963;28;20648;-72
2021/11/29 03:08:02;;;;;;;10.95;8.45;;;5.00;99.90;;;;;;5102849;28;20282;-73
2021/11/29 03:10:29;;;;;;;8.75;7.50;;;5.00;99.90;;;;;;5105949;28;20277;-73
2021/11/29 03:12:57;;;;;;;13.55;7.75;;;5.00;99.90;;;;;;5106625;28;20623;-73
2021/11/29 03:15:24;;;;;;;12.45;8.38;;;5.00;99.90;;;;;;5112965;28;20561;-73
2021/11/29 03:17:52;;;;;;;9.55;7.43;;;5.00;99.90;;;;;;5108834;28;20198;-73
2021/11/29 03:20:20;;;;;;;11.15;8.60;;;5.00;99.90;;;;;;5106034;28;20252;-73
2021/11/29 03:22:47;;;;;;;11.25;8.40;;;5.00;99.90;;;;;;5112598;28;20229;-73
2021/11/29 03:25:14;;;;;;;13.82;10.10;;;5.00;99.90;;;;;;5100419;27;20215;-73
2021/11/29 03:27:42;;;;;;;14.38;9.52;;;5.00;99.90;;;;;;5108593;28;20312;-73
2021/11/29 03:30:11;;;;;;;13.80;9.25;;;5.00;99.90;;;;;;5098613;28;20245;-73
2021/11/29 03:32:39;;;;;;;13.50;9.50;;;5.00;99.90;;;;;;5112464;28;20340;-73
2021/11/29 03:35:08;;;;;;;13.73;10.50;;;5.00;99.90;;;;;;5102252;28;20212;-73
2021/11/29 03:37:36;;;;;;;12.20;9.40;;;5.00;99.90;;;;;;5107191;28;20193;-74
2021/11/29 03:40:06;;;;;;;12.13;8.35;;;5.10;99.90;;;;;;5114025;28;20276;-74
2021/11/29 03:42:33;;;;;;;13.55;9.95;;;5.00;99.90;;;;;;5111660;28;20329;-73
2021/11/29 03:45:03;;;;;;;15.77;11.45;;;5.10;99.90;;;;;;5101348;28;20201;-73
2021/11/29 03:47:31;;;;;;;14.52;10.40;;;5.10;99.90;;;;;;5106944;28;20202;-73
2021/11/29 03:49:58;;;;;;;18.02;10.55;;;5.20;99.90;;;;;;5113749;27;20642;-73
2021/11/29 03:52:25;;;;;;;22.10;14.52;;;5.20;99.90;;;;;;5108508;27;20710;-74
2021/11/29 03:54:52;;;;;;;24.83;16.80;;;5.20;99.90;;;;;;5105716;28;20222;-73
2021/11/29 03:57:19;;;;;;;23.58;13.93;;;5.20;99.90;;;;;;5110998;28;20241;-73
2021/11/29 03:59:46;;;;;;;23.83;12.32;;;5.20;99.90;;;;;;5111227;28;20616;-73
2021/11/29 04:02:13;;;;;;;26.00;16.75;;;5.20;99.90;;;;;;5113471;27;20304;-73
2021/11/29 04:04:42;;;;;;;22.10;14.25;;;5.20;99.90;;;;;;5119048;27;20240;-73
2021/11/29 04:07:09;;;;;;;32.65;17.23;;;5.10;99.90;;;;;;5109581;28;20201;-74
2021/11/29 04:09:36;;;;;;;25.20;15.68;;;5.10;99.90;;;;;;5113768;28;20561;-73
2021/11/29 04:12:03;;;;;;;26.70;17.25;;;5.00;99.90;;;;;;5114317;28;20214;-73
2021/11/29 04:14:30;;;;;;;25.77;14.50;;;5.00;99.90;;;;;;5112588;27;20204;-73
2021/11/29 04:16:57;;;;;;;25.52;15.43;;;5.00;99.90;;;;;;5103063;28;20285;-73
2021/11/29 04:19:24;;;;;;;26.77;14.85;;;5.00;99.90;;;;;;5105752;28;20620;-73
2021/11/29 04:21:54;;;;;;;27.45;17.25;;;5.00;99.90;;;;;;5111119;28;20213;-73
2021/11/29 04:24:23;;;;;;;28.55;18.10;;;4.90;99.90;;;;;;5120528;27;20201;-74
2021/11/29 04:26:52;;;;;;;26.13;15.70;;;4.90;99.90;;;;;;5118116;27;20207;-73
2021/11/29 04:29:23;;;;;;;25.05;15.05;;;4.90;99.90;;;;;;5110177;28;20224;-73
2021/11/29 04:31:50;;;;;;;31.23;15.80;;;4.90;99.90;;;;;;5101439;28;20222;-73
2021/11/29 04:34:17;;;;;;;27.90;17.00;;;4.90;99.90;;;;;;5102361;28;20285;-73
2021/11/29 04:36:44;;;;;;;31.67;18.55;;;5.00;99.90;;;;;;5103321;28;20212;-73
2021/11/29 04:39:13;;;;;;;31.63;17.13;;;5.10;99.90;;;;;;5118154;27;20285;-73
2021/11/29 04:41:40;;;;;;;32.70;17.17;;;5.00;99.90;;;;;;5112529;28;20206;-73
2021/11/29 04:44:07;;;;;;;33.78;18.33;;;4.90;99.90;;;;;;5121325;27;20201;-73
2021/11/29 04:46:35;;;;;;;32.90;18.35;;;4.90;99.90;;;;;;5103228;28;20202;-73
2021/11/29 04:49:01;;;;;;;27.60;16.15;;;5.00;99.90;;;;;;5102896;28;20216;-73
2021/11/29 04:51:29;;;;;;;26.13;16.02;;;5.10;99.90;;;;;;5102255;28;20726;-73
2021/11/29 04:53:56;;;;;;;25.65;16.40;;;5.00;99.90;;;;;;5107880;28;20208;-73
2021/11/29 04:56:24;;;;;;;31.00;16.88;;;5.10;99.90;;;;;;5103839;28;20284;-73
2021/11/29 04:58:51;;;;;;;26.38;17.20;;;5.10;99.90;;;;;;5113652;27;20207;-73
2021/11/29 05:01:18;;;;;;;31.63;17.40;;;5.10;99.90;;;;;;5124119;27;20301;-73
2021/11/29 05:03:45;;;;;;;28.33;15.82;;;5.10;99.90;;;;;;5108079;28;20263;-73
2021/11/29 05:06:12;;;;;;;30.67;16.67;;;5.10;99.90;;;;;;5108590;28;20198;-73
2021/11/29 05:08:39;;;;;;;32.13;18.08;;;5.20;99.90;;;;;;5113640;28;20229;-74
2021/11/29 05:11:06;;;;;;;32.90;18.60;;;5.20;99.90;;;;;;5099852;28;20276;-73
2021/11/29 05:13:34;;;;;;;37.15;19.77;;;5.20;99.90;;;;;;5099735;28;20312;-73
2021/11/29 05:16:02;;;;;;;35.22;21.33;;;5.30;99.90;;;;;;5108879;28;20202;-73
2021/11/29 05:18:29;;;;;;;38.03;19.92;;;5.20;99.90;;;;;;5109832;28;20280;-73
2021/11/29 05:20:56;;;;;;;38.53;22.50;;;5.20;99.90;;;;;;5099702;28;20237;-73
2021/11/29 05:23:23;;;;;;;38.72;20.20;;;5.10;99.90;;;;;;5106718;28;20284;-73
2021/11/29 05:25:50;;;;;;;46.70;22.05;;;5.10;99.90;;;;;;5113128;28;20201;-73
2021/11/29 05:28:18;;;;;;;36.17;19.92;;;5.10;99.90;;;;;;5111215;28;20231;-73
2021/11/29 05:30:47;;;;;;;41.22;22.77;;;5.10;99.90;;;;;;5104621;28;20212;-73
2021/11/29 05:33:14;;;;;;;42.95;23.00;;;5.10;99.90;;;;;;5110537;28;21541;-73
2021/11/29 05:35:41;;;;;;;45.95;22.77;;;5.10;99.90;;;;;;5110033;28;20212;-73
2021/11/29 05:38:08;;;;;;;39.55;22.95;;;5.00;99.90;;;;;;5115930;28;20201;-73
2021/11/29 05:40:35;;;;;;;33.95;19.40;;;5.00;99.90;;;;;;5100281;28;20276;-73
2021/11/29 05:43:02;;;;;;;39.42;21.80;;;5.00;99.90;;;;;;5112219;28;20221;-73
2021/11/29 05:45:29;;;;;;;44.42;26.20;;;5.00;99.90;;;;;;5112425;28;20693;-73
2021/11/29 05:47:57;;;;;;;40.17;22.45;;;5.00;99.90;;;;;;5106714;28;20318;-73
2021/11/29 05:50:24;;;;;;;43.45;20.80;;;5.00;99.90;;;;;;5102736;28;20189;-73
2021/11/29 05:52:51;;;;;;;38.58;21.35;;;5.00;99.90;;;;;;5102559;28;20257;-74
2021/11/29 05:55:18;;;;;;;40.33;22.17;;;5.00;99.90;;;;;;5108092;28;20229;-73
2021/11/29 05:57:45;;;;;;;36.47;20.80;;;5.00;99.90;;;;;;5112404;28;20317;-74
2021/11/29 06:00:16;;;;;;;39.45;20.63;;;5.10;99.90;;;;;;5104080;28;20198;-73
2021/11/29 06:02:43;;;;;;;38.53;20.27;;;5.00;99.90;;;;;;5103949;28;20691;-72
2021/11/29 06:05:13;;;;;;;45.75;23.73;;;5.00;99.90;;;;;;5100381;28;20206;-73
2021/11/29 06:07:41;;;;;;;38.10;21.15;;;4.90;99.90;;;;;;5110784;28;20284;-73
2021/11/29 06:10:10;;;;;;;40.13;22.33;;;4.90;99.90;;;;;;5111741;28;20237;-73
2021/11/29 06:12:38;;;;;;;38.70;21.15;;;4.90;99.90;;;;;;5108850;28;20222;-74
2021/11/29 06:15:06;;;;;;;34.97;20.10;;;4.90;99.90;;;;;;5106234;28;20668;-73
2021/11/29 06:17:33;;;;;;;40.72;19.13;;;4.80;99.90;;;;;;5101635;28;20290;-73
2021/11/29 06:20:00;;;;;;;36.95;20.73;;;4.80;99.90;;;;;;5102076;28;20439;-73
2021/11/29 06:22:28;;;;;;;33.75;20.17;;;4.70;99.90;;;;;;5106996;28;20312;-73
2021/11/29 06:24:55;;;;;;;39.60;20.20;;;4.80;99.90;;;;;;5112048;28;20578;-74
2021/11/29 06:27:22;;;;;;;41.15;19.88;;;4.80;99.90;;;;;;5111572;28;20201;-74
2021/11/29 06:29:49;;;;;;;37.50;20.40;;;4.70;99.90;;;;;;5113382;28;20218;-71
2021/11/29 06:32:16;;;;;;;36.25;19.45;;;4.70;99.90;;;;;;5110570;28;20223;-73
2021/11/29 06:34:43;;;;;;;30.30;20.92;;;4.70;99.90;;;;;;5095063;28;20606;-73
2021/11/29 06:37:12;;;;;;;30.85;16.63;;;4.70;99.90;;;;;;5104374;28;20198;-72
2021/11/29 06:39:41;;;;;;;31.85;17.42;;;4.60;99.90;;;;;;5107239;27;20289;-73
2021/11/29 06:42:09;;;;;;;36.95;18.40;;;4.60;99.90;;;;;;5105808;28;20264;-74
2021/11/29 06:44:38;;;;;;;42.08;17.17;;;4.60;99.90;;;;;;5106033;28;20238;-72
2021/11/29 06:47:05;;;;;;;30.58;16.08;;;4.60;99.90;;;;;;5102789;28;20194;-73
2021/11/29 06:49:32;;;;;;;30.92;18.50;;;4.60;99.90;;;;;;5106413;28;20221;-73
2021/11/29 06:52:02;;;;;;;27.90;14.45;;;4.60;99.90;;;;;;5114206;28;20316;-73
2021/11/29 06:54:31;;;;;;;27.65;14.57;;;4.50;99.90;;;;;;5102045;28;20229;-73
2021/11/29 06:57:00;;;;;;;25.25;14.23;;;4.60;99.90;;;;;;5111249;28;20202;-73
2021/11/29 06:59:28;;;;;;;29.13;13.90;;;4.50;99.90;;;;;;5108606;28;20299;-73
2021/11/29 07:01:55;;;;;;;27.45;15.07;;;4.40;99.90;;;;;;5109161;28;20226;-73
2021/11/29 07:04:22;;;;;;;24.70;14.35;;;4.40;99.90;;;;;;5114067;28;20537;-72
2021/11/29 07:06:49;;;;;;;22.77;13.90;;;4.40;99.90;;;;;;5101569;28;20206;-72
2021/11/29 07:09:16;;;;;;;30.05;14.07;;;4.40;99.90;;;;;;5110594;28;20255;-72
2021/11/29 07:11:43;;;;;;;26.70;14.98;;;4.30;99.90;;;;;;5113006;28;20221;-72
2021/11/29 07:14:12;;;;;;;27.52;14.75;;;4.20;99.90;;;;;;5114122;28;20197;-72
2021/11/29 07:16:45;;;;;;;26.80;14.25;;;4.10;99.90;;;;;;5123352;27;20207;-73
2021/11/29 07:19:12;;;;;;;28.45;15.80;;;4.10;99.90;;;;;;5102347;27;20193;-73
2021/11/29 07:21:39;;;;;;;23.25;12.98;;;4.00;99.90;;;;;;5114322;28;20288;-72
2021/11/29 07:24:08;;;;;;;27.08;15.63;;;4.00;99.90;;;;;;5111428;28;20237;-75
2021/11/29 07:26:35;;;;;;;29.60;13.95;;;4.00;99.90;;;;;;5112391;28;20190;-70
2021/11/29 07:29:03;;;;;;;18.83;13.00;;;4.00;99.90;;;;;;5114758;28;20270;-70
2021/11/29 07:31:31;;;;;;;20.48;12.82;;;4.00;99.90;;;;;;5112746;28;20321;-73
2021/11/29 07:33:58;;;;;;;32.08;16.52;;;4.00;99.90;;;;;;5111716;28;20211;-71
2021/11/29 07:36:25;;;;;;;26.65;15.27;;;4.00;99.90;;;;;;5104774;28;20199;-71
2021/11/29 07:38:52;;;;;;;24.02;13.27;;;4.10;99.90;;;;;;5108990;28;20193;-71
2021/11/29 07:41:19;;;;;;;24.88;12.55;;;4.10;99.90;;;;;;5112646;28;20281;-73
2021/11/29 07:43:47;;;;;;;26.80;13.45;;;4.20;99.90;;;;;;5113024;28;20565;-72
2021/11/29 07:46:14;;;;;;;24.73;14.50;;;4.20;99.90;;;;;;5106877;28;20189;-74
2021/11/29 07:48:42;;;;;;;25.65;12.98;;;4.20;99.90;;;;;;5101438;28;20597;-74
2021/11/29 07:51:09;;;;;;;29.40;14.32;;;4.10;99.90;;;;;;5110335;28;20223;-73
2021/11/29 07:53:36;;;;;;;31.58;15.65;;;4.20;99.90;;;;;;5110629;28;20217;-73
2021/11/29 07:56:04;;;;;;;19.35;12.35;;;4.20;99.90;;;;;;5111107;28;20218;-72
2021/11/29 07:58:31;;;;;;;16.73;9.88;;;4.30;99.90;;;;;;5112715;28;20234;-72
2021/11/29 08:00:57;;;;;;;22.40;11.90;;;4.40;99.90;;;;;;5112698;28;20216;-73
2021/11/29 08:03:24;;;;;;;20.38;11.35;;;4.50;99.90;;;;;;5115543;27;20719;-74
2021/11/29 08:05:53;;;;;;;19.05;11.07;;;4.50;99.90;;;;;;5113688;28;20288;-71
2021/11/29 08:08:19;;;;;;;19.33;11.02;;;4.60;99.90;;;;;;5113714;28;20205;-71
2021/11/29 08:10:46;;;;;;;20.83;11.38;;;4.60;99.90;;;;;;5110532;28;20276;-71
2021/11/29 08:13:14;;;;;;;17.92;11.63;;;4.70;99.90;;;;;;5110785;28;20217;-71
2021/11/29 08:15:41;;;;;;;22.08;13.52;;;4.70;99.90;;;;;;5106326;28;20236;-71
2021/11/29 08:18:09;;;;;;;21.90;12.90;;;4.70;99.90;;;;;;5113066;28;20288;-72
2021/11/29 08:20:37;;;;;;;24.38;12.40;;;4.60;99.90;;;;;;5111271;27;20224;-72
2021/11/29 08:23:08;;;;;;;23.63;14.40;;;4.70;99.90;;;;;;5106142;28;20221;-71
2021/11/29 08:25:36;;;;;;;22.83;13.23;;;4.70;99.90;;;;;;5110933;27;20205;-71
2021/11/29 08:28:03;;;;;;;23.70;13.40;;;4.60;99.90;;;;;;5110591;28;20201;-71
2021/11/29 08:30:29;;;;;;;19.70;11.20;;;4.50;99.90;;;;;;5104353;28;20229;-72
2021/11/29 08:32:56;;;;;;;20.52;9.90;;;4.50;99.90;;;;;;5109630;27;20292;-72
2021/11/29 08:35:24;;;;;;;21.52;11.82;;;4.50;99.90;;;;;;5100087;28;20288;-72
2021/11/29 08:37:54;;;;;;;20.23;11.32;;;4.50;99.90;;;;;;5115735;28;20225;-72
2021/11/29 08:40:27;;;;;;;19.35;11.02;;;4.70;99.90;;;;;;5108093;28;20197;-71
2021/11/29 08:42:55;;;;;;;18.67;10.25;;;4.80;99.90;;;;;;5120304;27;20212;-71
2021/11/29 08:45:21;;;;;;;20.45;11.45;;;5.00;99.90;;;;;;5107893;27;20190;-72
2021/11/29 08:47:48;;;;;;;17.33;9.98;;;5.10;99.90;;;;;;5113583;28;20207;-72
2021/11/29 08:50:16;;;;;;;17.58;10.98;;;5.20;99.90;;;;;;5105197;28;20206;-70
2021/11/29 08:52:44;;;;;;;22.38;10.15;;;5.30;99.90;;;;;;5113266;28;20249;-72
2021/11/29 08:55:12;;;;;;;13.20;8.52;;;5.30;99.90;;;;;;5105811;27;20202;-71
2021/11/29 08:57:40;;;;;;;12.93;9.18;;;5.40;99.90;;;;;;5102401;27;20209;-71
2021/11/29 09:00:11;;;;;;;13.05;9.07;;;5.40;99.90;;;;;;5096101;28;20579;-70
2021/11/29 09:02:38;;;;;;;12.55;9.02;;;5.40;99.90;;;;;;5110765;28;20230;-71
2021/11/29 09:05:06;;;;;;;15.43;8.40;;;5.40;99.90;;;;;;5115431;27;20279;-71
2021/11/29 09:07:34;;;;;;;14.55;7.78;;;5.50;99.90;;;;;;5106613;27;20273;-71
2021/11/29 09:10:01;;;;;;;16.50;9.68;;;5.50;99.90;;;;;;5110041;28;20617;-71
2021/11/29 09:12:28;;;;;;;15.57;9.07;;;5.50;99.90;;;;;;5098063;28;20228;-71
2021/11/29 09:14:57;;;;;;;15.25;10.50;;;5.50;99.90;;;;;;5111776;28;20278;-71
2021/11/29 09:17:25;;;;;;;13.70;9.18;;;5.60;99.90;;;;;;5114748;27;20630;-72
2021/11/29 09:19:52;;;;;;;18.33;9.98;;;5.60;99.90;;;;;;5123702;27;20294;-72
2021/11/29 09:22:20;;;;;;;15.57;9.70;;;5.60;99.90;;;;;;5105734;27;20217;-71
2021/11/29 09:24:47;;;;;;;18.00;7.93;;;5.60;99.90;;;;;;5104025;28;20232;-71
2021/11/29 09:27:14;;;;;;;18.40;10.27;;;5.70;99.90;;;;;;5121486;27;20198;-71
2021/11/29 09:29:41;;;;;;;17.52;10.10;;;5.70;99.90;;;;;;5110715;28;20205;-72
2021/11/29 09:32:09;;;;;;;18.90;9.80;;;5.80;99.90;;;;;;5109314;28;20596;-72
2021/11/29 09:34:36;;;;;;;34.40;8.93;;;6.00;99.90;;;;;;5099976;28;20195;-72
2021/11/29 09:37:03;;;;;;;12.73;8.75;;;6.00;99.90;;;;;;5107792;28;20259;-72
2021/11/29 09:39:31;;;;;;;12.65;8.55;;;6.00;99.90;;;;;;5108039;28;20204;-71
2021/11/29 09:41:57;;;;;;;13.88;8.18;;;6.10;99.90;;;;;;5105643;28;20571;-71
2021/11/29 09:44:25;;;;;;;11.05;7.82;;;6.20;99.90;;;;;;5098478;28;20283;-72
2021/11/29 09:46:51;;;;;;;12.80;8.05;;;6.20;99.90;;;;;;5108689;28;20191;-71
2021/11/29 09:49:20;;;;;;;19.25;7.40;;;6.20;99.90;;;;;;5112098;28;20248;-71
2021/11/29 09:51:47;;;;;;;16.85;8.93;;;6.20;99.90;;;;;;5110226;28;20218;-72
2021/11/29 09:54:16;;;;;;;17.13;7.70;;;6.20;99.90;;;;;;5103751;28;20310;-71
2021/11/29 09:56:43;;;;;;;12.77;7.93;;;6.30;99.90;;;;;;5105780;28;20573;-72
2021/11/29 09:59:10;;;;;;;12.13;7.47;;;6.30;99.90;;;;;;5112694;28;20206;-72
2021/11/29 10:01:37;;;;;;;12.60;7.57;;;6.30;99.90;;;;;;5099499;28;20203;-73
2021/11/29 10:04:05;;;;;;;10.75;7.72;;;6.30;99.90;;;;;;5104783;28;20227;-71
2021/11/29 10:06:34;;;;;;;18.38;8.05;;;6.30;99.90;;;;;;5106698;28;20298;-70
2021/11/29 10:09:02;;;;;;;11.43;7.97;;;6.30;99.90;;;;;;5106265;28;20223;-71
2021/11/29 10:11:29;;;;;;;10.23;7.55;;;6.30;99.90;;;;;;5108704;28;20259;-72
2021/11/29 10:13:58;;;;;;;14.68;9.45;;;6.40;99.90;;;;;;5109237;28;20243;-71
2021/11/29 10:16:34;;;;;;;16.70;7.95;;;7.00;99.90;;;;;;5103693;28;20296;-71
2021/11/29 10:19:01;;;;;;;8.32;5.82;;;7.50;99.90;;;;;;5106683;28;20708;-70
2021/11/29 10:21:28;;;;;;;14.20;7.45;;;7.90;99.90;;;;;;5110572;28;20208;-72
2021/11/29 10:23:59;;;;;;;10.27;6.88;;;8.30;99.90;;;;;;5112324;28;20284;-72
2021/11/29 10:26:28;;;;;;;15.63;7.90;;;8.40;99.90;;;;;;5114776;28;20279;-70
2021/11/29 10:28:56;;;;;;;13.40;8.40;;;8.30;99.90;;;;;;5114290;28;20292;-71
2021/11/29 10:31:27;;;;;;;12.15;6.68;;;8.30;99.90;;;;;;5109426;28;20234;-71
2021/11/29 10:33:57;;;;;;;11.32;7.53;;;8.20;99.90;;;;;;5108636;28;20284;-71
2021/11/29 10:36:27;;;;;;;15.45;7.50;;;7.70;99.90;;;;;;5112463;28;20311;-71
2021/11/29 10:38:59;;;;;;;12.35;8.18;;;7.50;99.90;;;;;;5112465;28;20281;-72
2021/11/29 10:41:30;;;;;;;8.55;6.22;;;7.60;99.90;;;;;;5102052;28;20190;-71
2021/11/29 10:43:57;;;;;;;11.65;7.30;;;7.80;99.90;;;;;;5113966;28;20200;-72
2021/11/29 10:46:28;;;;;;;11.38;8.90;;;8.20;99.90;;;;;;5124839;27;20206;-71
2021/11/29 10:48:56;;;;;;;10.10;7.05;;;8.40;99.90;;;;;;5105493;28;20194;-72
2021/11/29 10:51:26;;;;;;;13.85;8.43;;;8.70;99.90;;;;;;5105900;28;20637;-70
2021/11/29 10:53:57;;;;;;;14.43;7.43;;;8.90;99.90;;;;;;5112436;28;20281;-70
2021/11/29 10:56:26;;;;;;;12.95;8.10;;;9.10;99.90;;;;;;5111921;28;20378;-71
2021/11/29 10:58:56;;;;;;;14.02;8.90;;;9.00;99.90;;;;;;5104306;28;20194;-70
2021/11/29 11:01:41;;;;;;;12.88;8.50;;;8.80;99.90;;;;;;5114430;28;20279;-73
2021/11/29 11:04:11;;;;;;;11.90;6.95;;;8.50;99.90;;;;;;5116601;27;20205;-71
2021/11/29 11:06:39;;;;;;;10.93;7.43;;;8.60;99.90;;;;;;5103193;28;20711;-72
2021/11/29 11:09:13;;;;;;;10.10;8.23;;;8.50;99.90;;;;;;5113789;28;20212;-72
2021/11/29 11:11:44;;;;;;;9.98;7.72;;;8.40;99.90;;;;;;5090188;28;20335;-72
2021/11/29 11:14:13;;;;;;;9.43;7.80;;;8.20;99.90;;;;;;5111999;27;20193;-72
2021/11/29 11:16:50;;;;;;;9.00;7.20;;;8.00;99.90;;;;;;5113077;28;20201;-72
2021/11/29 11:19:35;;;;;;;14.77;8.35;;;7.80;99.90;;;;;;5107951;28;20196;-72
2021/11/29 11:22:16;;;;;;;17.70;9.48;;;7.70;99.90;;;;;;5105009;28;20230;-71
2021/11/29 11:24:46;;;;;;;11.50;8.05;;;7.60;99.90;;;;;;5106181;28;20201;-71
2021/11/29 11:27:14;;;;;;;11.82;8.20;;;7.60;99.90;;;;;;5111558;27;20201;-72
2021/11/29 11:29:51;;;;;;;11.77;8.63;;;7.50;99.90;;;;;;5116077;27;20649;-72
2021/11/29 11:32:31;;;;;;;12.07;8.77;;;7.40;99.90;;;;;;5108325;28;20601;-72
2021/11/29 11:35:00;;;;;;;15.27;8.18;;;7.40;99.90;;;;;;5114260;28;20625;-71
2021/11/29 11:37:32;;;;;;;10.73;8.23;;;7.20;99.90;;;;;;5114107;28;20283;-71
2021/11/29 11:40:00;;;;;;;11.73;9.18;;;7.10;99.90;;;;;;5101431;28;20316;-71
2021/11/29 11:42:28;;;;;;;15.35;8.30;;;7.00;99.90;;;;;;5106796;27;20233;-71
2021/11/29 11:44:56;;;;;;;12.38;8.57;;;6.90;99.90;;;;;;5113718;27;20229;-73
2021/11/29 11:47:25;;;;;;;11.98;8.95;;;6.90;99.90;;;;;;5100194;28;20277;-71
2021/11/29 11:49:52;;;;;;;16.05;8.65;;;7.00;99.90;;;;;;5107519;28;20239;-71
2021/11/29 11:52:21;;;;;;;15.48;9.05;;;7.20;99.90;;;;;;5113626;28;20304;-72
2021/11/29 11:54:49;;;;;;;12.00;8.45;;;7.20;99.90;;;;;;5112958;27;20253;-73
2021/11/29 11:57:22;;;;;;;10.55;7.80;;;7.20;99.90;;;;;;5115356;27;20211;-72
2021/11/29 12:00:09;;;;;;;11.20;7.38;;;7.20;99.90;;;;;;5116454;27;20203;-71
2021/11/29 12:03:06;;;;;;;11.55;8.52;;;7.20;99.90;;;;;;5123443;27;20251;-72
2021/11/29 12:05:35;;;;;;;11.82;8.52;;;7.30;99.90;;;;;;5123729;27;20275;-71
2021/11/29 12:08:04;;;;;;;12.25;7.95;;;7.30;99.90;;;;;;5102016;28;20269;-71
2021/11/29 12:10:36;;;;;;;10.35;8.02;;;7.20;99.90;;;;;;5107107;28;20223;-72
2021/11/29 12:13:07;;;;;;;11.32;7.80;;;7.20;99.90;;;;;;5100030;28;20735;-72
2021/11/29 12:15:45;;;;;;;14.98;9.10;;;7.30;99.90;;;;;;5105547;28;20219;-72
2021/11/29 12:18:14;;;;;;;12.13;9.32;;;7.30;99.90;;;;;;5109576;28;20655;-73
2021/11/29 12:20:42;;;;;;;10.23;8.38;;;7.30;99.90;;;;;;5102453;28;20261;-71
2021/11/29 12:23:38;;;;;;;11.32;8.43;;;7.30;99.90;;;;;;5107706;28;20650;-71
2021/11/29 12:26:05;;;;;;;11.85;8.32;;;7.20;99.90;;;;;;5106862;28;20200;-73
2021/11/29 12:28:38;;;;;;;12.00;7.43;;;7.20;99.90;;;;;;5109984;28;20197;-72
2021/11/29 12:31:35;;;;;;;11.93;8.57;;;7.20;99.90;;;;;;5093766;28;20342;-72
2021/11/29 12:34:04;;;;;;;11.45;8.55;;;7.10;99.90;;;;;;5109148;28;20190;-70
2021/11/29 12:37:04;;;;;;;15.00;9.38;;;7.10;99.90;;;;;;5109387;28;20204;-72
2021/11/29 12:39:54;;;;;;;11.15;8.00;;;7.10;99.90;;;;;;5106485;28;20290;-72
2021/11/29 12:42:57;;;;;;;14.70;9.63;;;7.10;99.90;;;;;;5100334;28;20217;-71
2021/11/29 12:45:33;;;;;;;12.13;9.15;;;7.10;99.90;;;;;;5105237;28;20566;-71
2021/11/29 12:48:18;;;;;;;11.07;8.50;;;7.10;99.90;;;;;;5103268;28;20678;-71
2021/11/29 12:50:55;;;;;;;12.05;10.02;;;7.10;99.90;;;;;;5104169;28;20215;-72